Terminal Aerodrome Forecast
Issued by NWS

Home | Current Version | Previous Version | Text Only | Print | Product List | Glossary Off
Versions: 1 2 3 4 5 6 7 8 9 10 11 12 13 14 15 16 17 18 19 20 21 22 23 24 25 26 27 28

000
FTUS43 KBIS 241521 AAC
TAFJMS
TAF AMD
KJMS 241521Z 2415/2512 32020G30KT P6SM VCSH OVC040
      TEMPO 2415/2416 -SHRA
     FM241600 30022G32KT P6SM FEW150
     FM250000 30010KT P6SM FEW250=

USA.gov is the U.S. government's official web portal to all federal, state and local government web resources and services.